sensor_id;sensor_type;location;lat;lon;timestamp;temperature;humidity
49242;DHT22;35079;52.704;13.814;2023-02-17T00:00:13;6.90;99.90
49242;DHT22;35079;52.704;13.814;2023-02-17T00:02:38;7.00;99.90
49242;DHT22;35079;52.704;13.814;2023-02-17T00:05:05;7.00;99.90
49242;DHT22;35079;52.704;13.814;2023-02-17T00:07:32;7.10;99.90
49242;DHT22;35079;52.704;13.814;2023-02-17T00:10:19;7.30;99.90
49242;DHT22;35079;52.704;13.814;2023-02-17T00:12:45;7.20;99.90
49242;DHT22;35079;52.704;13.814;2023-02-17T00:15:10;7.20;99.90
49242;DHT22;35079;52.704;13.814;2023-02-17T00:17:36;7.10;99.90
49242;DHT22;35079;52.704;13.814;2023-02-17T00:20:03;7.10;99.90
49242;DHT22;35079;52.704;13.814;2023-02-17T00:22:29;7.10;99.90
49242;DHT22;35079;52.704;13.814;2023-02-17T00:24:54;7.10;99.90
49242;DHT22;35079;52.704;13.814;2023-02-17T00:27:20;7.20;99.90
49242;DHT22;35079;52.704;13.814;2023-02-17T00:29:46;7.20;99.90
49242;DHT22;35079;52.704;13.814;2023-02-17T00:32:11;7.20;99.90
49242;DHT22;35079;52.704;13.814;2023-02-17T00:34:37;7.40;99.90
49242;DHT22;35079;52.704;13.814;2023-02-17T00:37:03;7.20;99.90
49242;DHT22;35079;52.704;13.814;2023-02-17T00:39:28;7.20;99.90
49242;DHT22;35079;52.704;13.814;2023-02-17T00:41:54;7.10;99.90
49242;DHT22;35079;52.704;13.814;2023-02-17T00:44:22;7.20;99.90
49242;DHT22;35079;52.704;13.814;2023-02-17T00:46:48;7.20;99.90
49242;DHT22;35079;52.704;13.814;2023-02-17T00:49:22;7.20;99.90
49242;DHT22;35079;52.704;13.814;2023-02-17T00:51:49;7.20;99.90
49242;DHT22;35079;52.704;13.814;2023-02-17T00:54:15;7.20;99.90
49242;DHT22;35079;52.704;13.814;2023-02-17T00:56:40;7.20;99.90
49242;DHT22;35079;52.704;13.814;2023-02-17T00:59:08;7.20;99.90
49242;DHT22;35079;52.704;13.814;2023-02-17T01:01:34;7.20;99.90
49242;DHT22;35079;52.704;13.814;2023-02-17T01:04:00;7.20;99.90
49242;DHT22;35079;52.704;13.814;2023-02-17T01:06:31;7.30;99.90
49242;DHT22;35079;52.704;13.814;2023-02-17T01:08:57;7.10;99.90
49242;DHT22;35079;52.704;13.814;2023-02-17T01:11:29;7.20;99.90
49242;DHT22;35079;52.704;13.814;2023-02-17T01:13:55;7.10;99.90
49242;DHT22;35079;52.704;13.814;2023-02-17T01:16:26;7.30;99.90
49242;DHT22;35079;52.704;13.814;2023-02-17T01:18:52;7.20;99.90
49242;DHT22;35079;52.704;13.814;2023-02-17T01:21:25;7.40;99.90
49242;DHT22;35079;52.704;13.814;2023-02-17T01:23:52;7.10;99.90
49242;DHT22;35079;52.704;13.814;2023-02-17T01:26:21;7.20;99.90
49242;DHT22;35079;52.704;13.814;2023-02-17T01:28:47;7.20;99.90
49242;DHT22;35079;52.704;13.814;2023-02-17T01:31:13;7.10;99.90
49242;DHT22;35079;52.704;13.814;2023-02-17T01:33:39;7.30;99.90
49242;DHT22;35079;52.704;13.814;2023-02-17T01:36:07;7.20;99.90
49242;DHT22;35079;52.704;13.814;2023-02-17T01:38:34;7.10;99.90
49242;DHT22;35079;52.704;13.814;2023-02-17T01:41:01;7.10;99.90
49242;DHT22;35079;52.704;13.814;2023-02-17T01:43:27;7.30;99.90
49242;DHT22;35079;52.704;13.814;2023-02-17T01:45:58;7.10;99.90
49242;DHT22;35079;52.704;13.814;2023-02-17T01:48:42;7.10;99.90
49242;DHT22;35079;52.704;13.814;2023-02-17T01:51:41;7.10;99.90
49242;DHT22;35079;52.704;13.814;2023-02-17T01:54:12;7.30;99.90
49242;DHT22;35079;52.704;13.814;2023-02-17T01:56:41;7.20;99.90
49242;DHT22;35079;52.704;13.814;2023-02-17T01:59:14;7.10;99.90
49242;DHT22;35079;52.704;13.814;2023-02-17T02:01:41;7.10;99.90
49242;DHT22;35079;52.704;13.814;2023-02-17T02:04:07;7.10;99.90
49242;DHT22;35079;52.704;13.814;2023-02-17T02:06:35;7.10;99.90
49242;DHT22;35079;52.704;13.814;2023-02-17T02:09:11;7.30;99.90
49242;DHT22;35079;52.704;13.814;2023-02-17T02:11:38;7.10;99.90
49242;DHT22;35079;52.704;13.814;2023-02-17T02:14:05;7.30;99.90
49242;DHT22;35079;52.704;13.814;2023-02-17T02:17:07;7.20;99.90
49242;DHT22;35079;52.704;13.814;2023-02-17T02:28:25;7.20;99.90
49242;DHT22;35079;52.704;13.814;2023-02-17T02:33:36;7.20;99.90
49242;DHT22;35079;52.704;13.814;2023-02-17T02:36:28;7.10;99.90
49242;DHT22;35079;52.704;13.814;2023-02-17T02:39:18;7.10;99.90
49242;DHT22;35079;52.704;13.814;2023-02-17T02:41:57;7.10;99.90
49242;DHT22;35079;52.704;13.814;2023-02-17T02:44:23;7.10;99.90
49242;DHT22;35079;52.704;13.814;2023-02-17T02:47:00;7.20;99.90
49242;DHT22;35079;52.704;13.814;2023-02-17T02:49:27;7.10;99.90
49242;DHT22;35079;52.704;13.814;2023-02-17T02:52:18;7.20;99.90
49242;DHT22;35079;52.704;13.814;2023-02-17T02:58:07;7.10;99.90
49242;DHT22;35079;52.704;13.814;2023-02-17T03:01:01;7.00;99.90
49242;DHT22;35079;52.704;13.814;2023-02-17T03:06:08;7.10;99.90
49242;DHT22;35079;52.704;13.814;2023-02-17T03:08:46;7.10;99.90
49242;DHT22;35079;52.704;13.814;2023-02-17T03:11:15;7.00;99.90
49242;DHT22;35079;52.704;13.814;2023-02-17T03:14:03;7.10;99.90
49242;DHT22;35079;52.704;13.814;2023-02-17T03:16:30;7.10;99.90
49242;DHT22;35079;52.704;13.814;2023-02-17T03:18:55;7.20;99.90
49242;DHT22;35079;52.704;13.814;2023-02-17T03:21:22;7.20;99.90
49242;DHT22;35079;52.704;13.814;2023-02-17T03:23:50;7.20;99.90
49242;DHT22;35079;52.704;13.814;2023-02-17T03:26:15;7.20;99.90
49242;DHT22;35079;52.704;13.814;2023-02-17T03:28:41;7.20;99.90
49242;DHT22;35079;52.704;13.814;2023-02-17T03:31:06;7.20;99.90
49242;DHT22;35079;52.704;13.814;2023-02-17T03:33:32;7.20;99.90
49242;DHT22;35079;52.704;13.814;2023-02-17T03:35:58;7.20;99.90
49242;DHT22;35079;52.704;13.814;2023-02-17T03:38:23;7.20;99.90
49242;DHT22;35079;52.704;13.814;2023-02-17T03:40:49;7.10;99.90
49242;DHT22;35079;52.704;13.814;2023-02-17T03:43:15;7.10;99.90
49242;DHT22;35079;52.704;13.814;2023-02-17T03:45:41;7.20;99.90
49242;DHT22;35079;52.704;13.814;2023-02-17T03:48:06;7.00;99.90
49242;DHT22;35079;52.704;13.814;2023-02-17T03:50:33;7.30;99.90
49242;DHT22;35079;52.704;13.814;2023-02-17T03:52:59;7.30;99.90
49242;DHT22;35079;52.704;13.814;2023-02-17T03:55:24;7.20;99.90
49242;DHT22;35079;52.704;13.814;2023-02-17T03:57:50;7.10;99.90
49242;DHT22;35079;52.704;13.814;2023-02-17T04:00:16;7.10;99.90
49242;DHT22;35079;52.704;13.814;2023-02-17T04:02:41;7.10;99.90
49242;DHT22;35079;52.704;13.814;2023-02-17T04:05:07;7.30;99.90
49242;DHT22;35079;52.704;13.814;2023-02-17T04:07:33;7.30;99.90
49242;DHT22;35079;52.704;13.814;2023-02-17T04:09:58;7.30;99.90
49242;DHT22;35079;52.704;13.814;2023-02-17T04:12:24;7.10;99.90
49242;DHT22;35079;52.704;13.814;2023-02-17T04:14:49;7.10;99.90
49242;DHT22;35079;52.704;13.814;2023-02-17T04:17:15;7.20;99.90
49242;DHT22;35079;52.704;13.814;2023-02-17T04:19:41;7.10;99.90
49242;DHT22;35079;52.704;13.814;2023-02-17T04:22:06;7.20;99.90
49242;DHT22;35079;52.704;13.814;2023-02-17T04:24:34;7.20;99.90
49242;DHT22;35079;52.704;13.814;2023-02-17T04:27:00;7.30;99.90
49242;DHT22;35079;52.704;13.814;2023-02-17T04:29:26;7.10;99.90
49242;DHT22;35079;52.704;13.814;2023-02-17T04:31:52;7.40;99.90
49242;DHT22;35079;52.704;13.814;2023-02-17T04:34:17;7.30;99.90
49242;DHT22;35079;52.704;13.814;2023-02-17T04:36:43;7.30;99.90
49242;DHT22;35079;52.704;13.814;2023-02-17T04:39:08;7.20;99.90
49242;DHT22;35079;52.704;13.814;2023-02-17T04:41:34;7.20;99.90
49242;DHT22;35079;52.704;13.814;2023-02-17T04:44:00;7.40;99.90
49242;DHT22;35079;52.704;13.814;2023-02-17T04:46:25;7.10;99.90
49242;DHT22;35079;52.704;13.814;2023-02-17T04:48:51;7.20;99.90
49242;DHT22;35079;52.704;13.814;2023-02-17T04:51:16;7.40;99.90
49242;DHT22;35079;52.704;13.814;2023-02-17T04:53:42;7.20;99.90
49242;DHT22;35079;52.704;13.814;2023-02-17T04:56:08;7.30;99.90
49242;DHT22;35079;52.704;13.814;2023-02-17T04:58:33;7.20;99.90
49242;DHT22;35079;52.704;13.814;2023-02-17T05:00:59;7.40;99.90
49242;DHT22;35079;52.704;13.814;2023-02-17T05:03:25;7.20;99.90
49242;DHT22;35079;52.704;13.814;2023-02-17T05:05:51;7.30;99.90
49242;DHT22;35079;52.704;13.814;2023-02-17T05:08:16;7.30;99.90
49242;DHT22;35079;52.704;13.814;2023-02-17T05:10:42;7.50;99.90
49242;DHT22;35079;52.704;13.814;2023-02-17T05:13:08;7.40;99.90
49242;DHT22;35079;52.704;13.814;2023-02-17T05:15:34;7.30;99.90
49242;DHT22;35079;52.704;13.814;2023-02-17T05:17:59;7.50;99.90
49242;DHT22;35079;52.704;13.814;2023-02-17T05:20:32;7.50;99.90
49242;DHT22;35079;52.704;13.814;2023-02-17T05:22:58;7.50;99.90
49242;DHT22;35079;52.704;13.814;2023-02-17T05:25:23;7.40;99.90
49242;DHT22;35079;52.704;13.814;2023-02-17T05:27:49;7.40;99.90
49242;DHT22;35079;52.704;13.814;2023-02-17T05:30:15;7.40;99.90
49242;DHT22;35079;52.704;13.814;2023-02-17T05:32:40;7.40;99.90
49242;DHT22;35079;52.704;13.814;2023-02-17T05:35:06;7.40;99.90
49242;DHT22;35079;52.704;13.814;2023-02-17T05:37:32;7.40;99.90
49242;DHT22;35079;52.704;13.814;2023-02-17T05:39:57;7.40;99.90
49242;DHT22;35079;52.704;13.814;2023-02-17T05:42:23;7.40;99.90
49242;DHT22;35079;52.704;13.814;2023-02-17T05:44:53;7.40;99.90
49242;DHT22;35079;52.704;13.814;2023-02-17T05:47:19;7.50;99.90
49242;DHT22;35079;52.704;13.814;2023-02-17T05:49:45;7.60;99.90
49242;DHT22;35079;52.704;13.814;2023-02-17T05:52:10;7.40;99.90
49242;DHT22;35079;52.704;13.814;2023-02-17T05:54:36;7.70;99.90
49242;DHT22;35079;52.704;13.814;2023-02-17T05:57:02;7.50;99.90
49242;DHT22;35079;52.704;13.814;2023-02-17T05:59:27;7.60;99.90
49242;DHT22;35079;52.704;13.814;2023-02-17T06:01:53;7.60;99.90
49242;DHT22;35079;52.704;13.814;2023-02-17T06:04:19;7.60;99.90
49242;DHT22;35079;52.704;13.814;2023-02-17T06:06:44;7.50;99.90
49242;DHT22;35079;52.704;13.814;2023-02-17T06:09:10;7.50;99.90
49242;DHT22;35079;52.704;13.814;2023-02-17T06:11:35;7.50;99.90
49242;DHT22;35079;52.704;13.814;2023-02-17T06:14:01;7.50;99.90
49242;DHT22;35079;52.704;13.814;2023-02-17T06:16:27;7.70;99.90
49242;DHT22;35079;52.704;13.814;2023-02-17T06:18:52;7.60;99.90
49242;DHT22;35079;52.704;13.814;2023-02-17T06:21:18;7.60;99.90
49242;DHT22;35079;52.704;13.814;2023-02-17T06:23:44;7.60;99.90
49242;DHT22;35079;52.704;13.814;2023-02-17T06:26:09;7.70;99.90
49242;DHT22;35079;52.704;13.814;2023-02-17T06:28:35;7.70;99.90
49242;DHT22;35079;52.704;13.814;2023-02-17T06:31:00;7.60;99.90
49242;DHT22;35079;52.704;13.814;2023-02-17T06:33:26;7.60;99.90
49242;DHT22;35079;52.704;13.814;2023-02-17T06:35:52;7.80;99.90
49242;DHT22;35079;52.704;13.814;2023-02-17T06:38:18;7.60;99.90
49242;DHT22;35079;52.704;13.814;2023-02-17T06:40:44;7.70;99.90
49242;DHT22;35079;52.704;13.814;2023-02-17T06:43:10;7.80;99.90
49242;DHT22;35079;52.704;13.814;2023-02-17T06:45:35;7.80;99.90
49242;DHT22;35079;52.704;13.814;2023-02-17T06:48:01;7.70;99.90
49242;DHT22;35079;52.704;13.814;2023-02-17T06:50:26;7.70;99.90
49242;DHT22;35079;52.704;13.814;2023-02-17T06:52:52;7.70;99.90
49242;DHT22;35079;52.704;13.814;2023-02-17T06:55:18;7.70;99.90
49242;DHT22;35079;52.704;13.814;2023-02-17T06:57:43;7.80;99.90
49242;DHT22;35079;52.704;13.814;2023-02-17T07:00:09;7.90;99.90
49242;DHT22;35079;52.704;13.814;2023-02-17T07:02:39;7.80;99.90
49242;DHT22;35079;52.704;13.814;2023-02-17T07:05:05;7.70;99.90
49242;DHT22;35079;52.704;13.814;2023-02-17T07:07:31;7.80;99.90
49242;DHT22;35079;52.704;13.814;2023-02-17T07:09:57;7.90;99.90
49242;DHT22;35079;52.704;13.814;2023-02-17T07:12:22;7.80;99.90
49242;DHT22;35079;52.704;13.814;2023-02-17T07:14:48;7.80;99.90
49242;DHT22;35079;52.704;13.814;2023-02-17T07:17:13;7.80;99.90
49242;DHT22;35079;52.704;13.814;2023-02-17T07:19:39;7.90;99.90
49242;DHT22;35079;52.704;13.814;2023-02-17T07:22:05;8.00;99.90
49242;DHT22;35079;52.704;13.814;2023-02-17T07:24:31;7.90;99.90
49242;DHT22;35079;52.704;13.814;2023-02-17T07:26:58;8.00;99.90
49242;DHT22;35079;52.704;13.814;2023-02-17T07:29:25;8.10;99.90
49242;DHT22;35079;52.704;13.814;2023-02-17T07:31:51;8.00;99.90
49242;DHT22;35079;52.704;13.814;2023-02-17T07:34:17;8.10;99.90
49242;DHT22;35079;52.704;13.814;2023-02-17T07:36:43;8.20;99.90
49242;DHT22;35079;52.704;13.814;2023-02-17T07:39:09;8.00;99.90
49242;DHT22;35079;52.704;13.814;2023-02-17T07:41:34;8.00;99.90
49242;DHT22;35079;52.704;13.814;2023-02-17T07:44:00;8.10;99.90
49242;DHT22;35079;52.704;13.814;2023-02-17T07:46:26;8.10;99.90
49242;DHT22;35079;52.704;13.814;2023-02-17T07:48:52;8.00;99.90
49242;DHT22;35079;52.704;13.814;2023-02-17T07:51:19;8.00;99.90
49242;DHT22;35079;52.704;13.814;2023-02-17T07:53:46;8.10;99.90
49242;DHT22;35079;52.704;13.814;2023-02-17T07:56:13;8.20;99.90
49242;DHT22;35079;52.704;13.814;2023-02-17T07:58:41;8.00;99.90
49242;DHT22;35079;52.704;13.814;2023-02-17T08:01:08;8.20;99.90
49242;DHT22;35079;52.704;13.814;2023-02-17T08:03:34;8.10;99.90
49242;DHT22;35079;52.704;13.814;2023-02-17T08:06:00;8.30;99.90
49242;DHT22;35079;52.704;13.814;2023-02-17T08:08:26;8.10;99.90
49242;DHT22;35079;52.704;13.814;2023-02-17T08:11:14;8.10;99.90
49242;DHT22;35079;52.704;13.814;2023-02-17T08:14:00;8.30;99.90
49242;DHT22;35079;52.704;13.814;2023-02-17T08:16:25;8.20;99.90
49242;DHT22;35079;52.704;13.814;2023-02-17T08:18:52;8.30;99.90
49242;DHT22;35079;52.704;13.814;2023-02-17T08:21:19;8.30;99.90
49242;DHT22;35079;52.704;13.814;2023-02-17T08:23:44;8.30;99.90
49242;DHT22;35079;52.704;13.814;2023-02-17T08:26:10;8.30;99.90
49242;DHT22;35079;52.704;13.814;2023-02-17T08:28:36;8.50;99.90
49242;DHT22;35079;52.704;13.814;2023-02-17T08:31:01;8.50;99.90
49242;DHT22;35079;52.704;13.814;2023-02-17T08:33:27;8.40;99.90
49242;DHT22;35079;52.704;13.814;2023-02-17T08:35:53;8.60;99.90
49242;DHT22;35079;52.704;13.814;2023-02-17T08:38:18;8.60;99.90
49242;DHT22;35079;52.704;13.814;2023-02-17T08:40:44;8.40;99.90
49242;DHT22;35079;52.704;13.814;2023-02-17T08:43:10;8.70;99.90
49242;DHT22;35079;52.704;13.814;2023-02-17T08:45:35;8.60;99.90
49242;DHT22;35079;52.704;13.814;2023-02-17T08:48:03;8.60;99.90
49242;DHT22;35079;52.704;13.814;2023-02-17T08:50:29;8.60;99.90
49242;DHT22;35079;52.704;13.814;2023-02-17T08:52:55;8.80;99.90
49242;DHT22;35079;52.704;13.814;2023-02-17T08:55:20;8.70;99.90
49242;DHT22;35079;52.704;13.814;2023-02-17T08:57:48;8.70;99.90
49242;DHT22;35079;52.704;13.814;2023-02-17T09:00:15;8.80;99.90
49242;DHT22;35079;52.704;13.814;2023-02-17T09:02:41;8.70;99.90
49242;DHT22;35079;52.704;13.814;2023-02-17T09:05:10;8.80;99.90
49242;DHT22;35079;52.704;13.814;2023-02-17T09:07:37;8.80;99.90
49242;DHT22;35079;52.704;13.814;2023-02-17T09:10:18;8.70;99.90
49242;DHT22;35079;52.704;13.814;2023-02-17T09:12:44;8.90;99.90
49242;DHT22;35079;52.704;13.814;2023-02-17T09:15:10;8.80;99.90
49242;DHT22;35079;52.704;13.814;2023-02-17T09:17:38;8.80;99.90
49242;DHT22;35079;52.704;13.814;2023-02-17T09:20:11;8.90;99.90
49242;DHT22;35079;52.704;13.814;2023-02-17T09:22:37;8.80;99.90
49242;DHT22;35079;52.704;13.814;2023-02-17T09:25:03;8.80;99.90
49242;DHT22;35079;52.704;13.814;2023-02-17T09:27:29;8.90;99.90
49242;DHT22;35079;52.704;13.814;2023-02-17T09:29:55;8.90;99.90
49242;DHT22;35079;52.704;13.814;2023-02-17T09:32:21;8.90;99.90
49242;DHT22;35079;52.704;13.814;2023-02-17T09:34:47;9.10;99.90
49242;DHT22;35079;52.704;13.814;2023-02-17T09:37:15;9.10;99.90
49242;DHT22;35079;52.704;13.814;2023-02-17T09:39:42;9.10;99.90
49242;DHT22;35079;52.704;13.814;2023-02-17T09:42:23;9.00;99.90
49242;DHT22;35079;52.704;13.814;2023-02-17T09:44:56;9.10;99.90
49242;DHT22;35079;52.704;13.814;2023-02-17T09:47:48;9.30;99.90
49242;DHT22;35079;52.704;13.814;2023-02-17T09:50:22;9.20;99.90
49242;DHT22;35079;52.704;13.814;2023-02-17T09:53:00;9.20;99.90
49242;DHT22;35079;52.704;13.814;2023-02-17T09:55:35;9.20;99.90
49242;DHT22;35079;52.704;13.814;2023-02-17T09:58:18;9.30;99.90
49242;DHT22;35079;52.704;13.814;2023-02-17T10:01:08;9.30;99.90
49242;DHT22;35079;52.704;13.814;2023-02-17T10:03:43;9.30;99.90
49242;DHT22;35079;52.704;13.814;2023-02-17T10:06:30;9.30;99.90
49242;DHT22;35079;52.704;13.814;2023-02-17T10:12:02;9.30;99.90
49242;DHT22;35079;52.704;13.814;2023-02-17T10:14:33;9.40;99.90
49242;DHT22;35079;52.704;13.814;2023-02-17T10:19:53;9.30;99.90
49242;DHT22;35079;52.704;13.814;2023-02-17T10:22:22;9.30;99.90
49242;DHT22;35079;52.704;13.814;2023-02-17T10:24:48;9.20;99.90
49242;DHT22;35079;52.704;13.814;2023-02-17T10:27:19;9.40;99.90
49242;DHT22;35079;52.704;13.814;2023-02-17T10:40:53;9.40;99.90
49242;DHT22;35079;52.704;13.814;2023-02-17T10:43:26;9.50;99.90
49242;DHT22;35079;52.704;13.814;2023-02-17T10:45:54;9.40;99.90
49242;DHT22;35079;52.704;13.814;2023-02-17T10:48:29;9.50;99.90
49242;DHT22;35079;52.704;13.814;2023-02-17T10:50:59;9.30;99.90
49242;DHT22;35079;52.704;13.814;2023-02-17T10:53:32;9.40;99.90
49242;DHT22;35079;52.704;13.814;2023-02-17T10:56:16;9.40;99.90
49242;DHT22;35079;52.704;13.814;2023-02-17T10:58:54;9.40;99.90
49242;DHT22;35079;52.704;13.814;2023-02-17T11:01:21;9.30;99.90
49242;DHT22;35079;52.704;13.814;2023-02-17T11:04:03;9.30;99.90
49242;DHT22;35079;52.704;13.814;2023-02-17T11:06:29;9.30;99.90
49242;DHT22;35079;52.704;13.814;2023-02-17T11:09:15;9.40;99.90
49242;DHT22;35079;52.704;13.814;2023-02-17T11:11:50;9.40;99.90
49242;DHT22;35079;52.704;13.814;2023-02-17T11:14:35;9.40;99.90
49242;DHT22;35079;52.704;13.814;2023-02-17T11:17:11;9.40;99.90
49242;DHT22;35079;52.704;13.814;2023-02-17T11:19:37;9.40;99.90
49242;DHT22;35079;52.704;13.814;2023-02-17T11:22:24;9.40;99.90
49242;DHT22;35079;52.704;13.814;2023-02-17T11:24:58;9.50;99.90
49242;DHT22;35079;52.704;13.814;2023-02-17T11:27:24;9.40;99.90
49242;DHT22;35079;52.704;13.814;2023-02-17T11:29:50;9.40;99.90
49242;DHT22;35079;52.704;13.814;2023-02-17T11:32:16;9.60;99.90
49242;DHT22;35079;52.704;13.814;2023-02-17T11:34:55;9.40;99.90
49242;DHT22;35079;52.704;13.814;2023-02-17T11:37:22;9.60;99.90
49242;DHT22;35079;52.704;13.814;2023-02-17T11:39:54;9.50;99.90
49242;DHT22;35079;52.704;13.814;2023-02-17T11:42:30;9.50;99.90
49242;DHT22;35079;52.704;13.814;2023-02-17T11:44:58;9.60;99.90
49242;DHT22;35079;52.704;13.814;2023-02-17T11:47:45;9.70;99.90
49242;DHT22;35079;52.704;13.814;2023-02-17T11:50:38;9.70;99.90
49242;DHT22;35079;52.704;13.814;2023-02-17T11:53:13;9.70;99.90
49242;DHT22;35079;52.704;13.814;2023-02-17T11:56:02;9.80;99.90
49242;DHT22;35079;52.704;13.814;2023-02-17T12:01:10;9.70;99.90
49242;DHT22;35079;52.704;13.814;2023-02-17T12:09:47;9.80;99.90
49242;DHT22;35079;52.704;13.814;2023-02-17T12:16:00;9.80;99.90
49242;DHT22;35079;52.704;13.814;2023-02-17T12:18:45;9.80;99.90
49242;DHT22;35079;52.704;13.814;2023-02-17T12:26:45;10.10;99.90
49242;DHT22;35079;52.704;13.814;2023-02-17T12:29:24;10.00;99.90
49242;DHT22;35079;52.704;13.814;2023-02-17T12:34:45;10.00;99.90
49242;DHT22;35079;52.704;13.814;2023-02-17T12:37:31;10.20;99.90
49242;DHT22;35079;52.704;13.814;2023-02-17T12:40:05;10.30;99.90
49242;DHT22;35079;52.704;13.814;2023-02-17T12:42:36;10.20;99.90
49242;DHT22;35079;52.704;13.814;2023-02-17T12:45:06;10.20;99.90
49242;DHT22;35079;52.704;13.814;2023-02-17T12:47:52;10.30;99.90
49242;DHT22;35079;52.704;13.814;2023-02-17T12:50:34;10.30;99.90
49242;DHT22;35079;52.704;13.814;2023-02-17T12:53:05;10.30;99.90
49242;DHT22;35079;52.704;13.814;2023-02-17T12:55:56;10.30;99.90
49242;DHT22;35079;52.704;13.814;2023-02-17T12:58:27;10.60;99.90
49242;DHT22;35079;52.704;13.814;2023-02-17T13:01:10;10.50;99.90
49242;DHT22;35079;52.704;13.814;2023-02-17T13:03:38;10.50;99.90
49242;DHT22;35079;52.704;13.814;2023-02-17T13:11:46;10.60;99.90
49242;DHT22;35079;52.704;13.814;2023-02-17T13:14:37;10.70;99.90
49242;DHT22;35079;52.704;13.814;2023-02-17T13:17:03;10.70;99.90
49242;DHT22;35079;52.704;13.814;2023-02-17T13:19:34;10.70;99.90
49242;DHT22;35079;52.704;13.814;2023-02-17T13:22:00;10.80;99.90
49242;DHT22;35079;52.704;13.814;2023-02-17T13:24:38;10.90;99.90
49242;DHT22;35079;52.704;13.814;2023-02-17T13:32:32;11.00;99.90
49242;DHT22;35079;52.704;13.814;2023-02-17T13:42:42;10.90;99.90
49242;DHT22;35079;52.704;13.814;2023-02-17T13:45:23;10.90;99.90
49242;DHT22;35079;52.704;13.814;2023-02-17T13:47:51;11.00;99.90
49242;DHT22;35079;52.704;13.814;2023-02-17T13:50:34;11.10;99.90
49242;DHT22;35079;52.704;13.814;2023-02-17T13:53:02;11.10;99.90
49242;DHT22;35079;52.704;13.814;2023-02-17T13:55:30;11.00;99.90
49242;DHT22;35079;52.704;13.814;2023-02-17T13:57:57;11.00;99.90
49242;DHT22;35079;52.704;13.814;2023-02-17T14:00:31;11.20;99.90
49242;DHT22;35079;52.704;13.814;2023-02-17T14:03:00;11.10;99.90
49242;DHT22;35079;52.704;13.814;2023-02-17T14:10:38;11.00;99.90
49242;DHT22;35079;52.704;13.814;2023-02-17T14:13:03;11.10;99.90
49242;DHT22;35079;52.704;13.814;2023-02-17T14:15:33;11.10;99.90
49242;DHT22;35079;52.704;13.814;2023-02-17T14:17:58;11.20;99.90
49242;DHT22;35079;52.704;13.814;2023-02-17T14:20:25;11.00;99.90
49242;DHT22;35079;52.704;13.814;2023-02-17T14:23:02;11.00;99.90
49242;DHT22;35079;52.704;13.814;2023-02-17T14:25:30;11.20;99.90
49242;DHT22;35079;52.704;13.814;2023-02-17T14:27:56;11.00;99.90
49242;DHT22;35079;52.704;13.814;2023-02-17T14:30:38;11.10;99.90
49242;DHT22;35079;52.704;13.814;2023-02-17T14:35:30;11.00;99.90
49242;DHT22;35079;52.704;13.814;2023-02-17T14:38:17;11.10;99.90
49242;DHT22;35079;52.704;13.814;2023-02-17T14:40:44;11.00;99.90
49242;DHT22;35079;52.704;13.814;2023-02-17T14:43:09;11.20;99.90
49242;DHT22;35079;52.704;13.814;2023-02-17T14:45:35;11.00;99.90
49242;DHT22;35079;52.704;13.814;2023-02-17T14:48:00;11.00;99.90
49242;DHT22;35079;52.704;13.814;2023-02-17T14:50:26;11.10;99.90
49242;DHT22;35079;52.704;13.814;2023-02-17T14:52:52;11.20;99.90
49242;DHT22;35079;52.704;13.814;2023-02-17T14:57:51;11.00;99.90
49242;DHT22;35079;52.704;13.814;2023-02-17T15:00:16;11.00;99.90
49242;DHT22;35079;52.704;13.814;2023-02-17T15:02:42;11.00;99.90
49242;DHT22;35079;52.704;13.814;2023-02-17T15:05:08;11.00;99.90
49242;DHT22;35079;52.704;13.814;2023-02-17T15:07:34;11.00;99.90
49242;DHT22;35079;52.704;13.814;2023-02-17T15:10:00;11.00;99.90
49242;DHT22;35079;52.704;13.814;2023-02-17T15:12:26;11.10;99.90
49242;DHT22;35079;52.704;13.814;2023-02-17T15:14:51;11.00;99.90
49242;DHT22;35079;52.704;13.814;2023-02-17T15:17:17;11.00;99.90
49242;DHT22;35079;52.704;13.814;2023-02-17T15:19:47;11.10;99.90
49242;DHT22;35079;52.704;13.814;2023-02-17T15:22:13;11.10;99.90
49242;DHT22;35079;52.704;13.814;2023-02-17T15:24:39;11.10;99.90
49242;DHT22;35079;52.704;13.814;2023-02-17T15:27:05;11.00;99.90
49242;DHT22;35079;52.704;13.814;2023-02-17T15:29:31;11.10;99.90
49242;DHT22;35079;52.704;13.814;2023-02-17T15:32:03;11.20;99.90
49242;DHT22;35079;52.704;13.814;2023-02-17T15:34:35;11.00;99.90
49242;DHT22;35079;52.704;13.814;2023-02-17T15:37:01;11.00;99.90
49242;DHT22;35079;52.704;13.814;2023-02-17T15:39:27;11.20;99.90
49242;DHT22;35079;52.704;13.814;2023-02-17T15:41:54;11.10;99.90
49242;DHT22;35079;52.704;13.814;2023-02-17T15:44:23;11.20;99.90
49242;DHT22;35079;52.704;13.814;2023-02-17T15:46:51;11.00;99.90
49242;DHT22;35079;52.704;13.814;2023-02-17T15:49:18;11.20;99.90
49242;DHT22;35079;52.704;13.814;2023-02-17T15:51:43;11.10;99.90
49242;DHT22;35079;52.704;13.814;2023-02-17T15:54:09;11.20;99.90
49242;DHT22;35079;52.704;13.814;2023-02-17T15:56:49;11.10;99.90
49242;DHT22;35079;52.704;13.814;2023-02-17T15:59:21;11.00;99.90
49242;DHT22;35079;52.704;13.814;2023-02-17T16:01:48;11.00;99.90
49242;DHT22;35079;52.704;13.814;2023-02-17T16:04:15;10.90;99.90
49242;DHT22;35079;52.704;13.814;2023-02-17T16:06:41;11.10;99.90
49242;DHT22;35079;52.704;13.814;2023-02-17T16:09:07;10.90;99.90
49242;DHT22;35079;52.704;13.814;2023-02-17T16:11:33;10.90;99.90
49242;DHT22;35079;52.704;13.814;2023-02-17T16:14:00;10.90;99.90
49242;DHT22;35079;52.704;13.814;2023-02-17T16:16:28;11.10;99.90
49242;DHT22;35079;52.704;13.814;2023-02-17T16:18:59;10.90;99.90
49242;DHT22;35079;52.704;13.814;2023-02-17T16:21:26;10.90;99.90
49242;DHT22;35079;52.704;13.814;2023-02-17T16:23:51;10.90;99.90
49242;DHT22;35079;52.704;13.814;2023-02-17T16:26:32;10.90;99.90
49242;DHT22;35079;52.704;13.814;2023-02-17T16:29:00;10.90;99.90
49242;DHT22;35079;52.704;13.814;2023-02-17T16:31:26;10.90;99.90
49242;DHT22;35079;52.704;13.814;2023-02-17T16:33:52;10.90;99.90
49242;DHT22;35079;52.704;13.814;2023-02-17T16:36:23;11.10;99.90
49242;DHT22;35079;52.704;13.814;2023-02-17T16:38:49;11.00;99.90
49242;DHT22;35079;52.704;13.814;2023-02-17T16:41:17;10.90;99.90
49242;DHT22;35079;52.704;13.814;2023-02-17T16:43:43;10.90;99.90
49242;DHT22;35079;52.704;13.814;2023-02-17T16:46:38;11.00;99.90
49242;DHT22;35079;52.704;13.814;2023-02-17T16:49:22;10.80;99.90
49242;DHT22;35079;52.704;13.814;2023-02-17T16:51:50;10.80;99.90
49242;DHT22;35079;52.704;13.814;2023-02-17T16:54:16;10.90;99.90
49242;DHT22;35079;52.704;13.814;2023-02-17T16:56:45;10.90;99.90
49242;DHT22;35079;52.704;13.814;2023-02-17T16:59:13;10.80;99.90
49242;DHT22;35079;52.704;13.814;2023-02-17T17:01:39;10.90;99.90
49242;DHT22;35079;52.704;13.814;2023-02-17T17:04:05;10.70;99.90